Addison, Alabama
Current Conditions -  °F | °C
As of 8:35 PM on Saturday 25 Oct 2014 (Local Time) from KCMD Reporting Station
Clear Clear  
Wind Chill: 61°   Ceiling: Unl
Heat Index: 61°   Visibility: 7mi
Dew Point: 59°   Wind: 0mph
Humidity: 95%   Direction: NA
Pressure: 30.08"   Gusts: NA
Location:  34.2°N, 87.18°W
Report Text: KCMD 260135Z AUTO 00000KT 7SM CLR 16/15 A3008 RMK AO2 T01600152
Loading
Personal Weather Stations






























Interactive Weather Map
Tropical Storm Tracking
New forecast layout! Learn more

10-Day Weather Forecast

Advertisements
Track Severe Weather on mobile